sensor_id;sensor_type;location;lat;lon;timestamp;temperature;humidity
15003;DHT22;7597;53.590;10.020;2023-02-18T00:03:03;6.40;46.40
15003;DHT22;7597;53.590;10.020;2023-02-18T00:05:30;6.30;47.30
15003;DHT22;7597;53.590;10.020;2023-02-18T00:08:04;6.40;47.30
15003;DHT22;7597;53.590;10.020;2023-02-18T00:10:30;6.40;38.30
15003;DHT22;7597;53.590;10.020;2023-02-18T00:12:58;6.50;39.00
15003;DHT22;7597;53.590;10.020;2023-02-18T00:15:25;6.50;37.00
15003;DHT22;7597;53.590;10.020;2023-02-18T00:17:52;6.50;31.80
15003;DHT22;7597;53.590;10.020;2023-02-18T00:20:20;6.50;28.90
15003;DHT22;7597;53.590;10.020;2023-02-18T00:22:47;6.50;26.30
15003;DHT22;7597;53.590;10.020;2023-02-18T00:25:15;6.50;27.90
15003;DHT22;7597;53.590;10.020;2023-02-18T00:27:42;6.50;22.70
15003;DHT22;7597;53.590;10.020;2023-02-18T00:30:10;6.50;31.00
15003;DHT22;7597;53.590;10.020;2023-02-18T00:32:36;6.50;25.40
15003;DHT22;7597;53.590;10.020;2023-02-18T00:35:04;6.50;24.60
15003;DHT22;7597;53.590;10.020;2023-02-18T00:37:31;6.50;27.00
15003;DHT22;7597;53.590;10.020;2023-02-18T00:39:58;6.50;26.90
15003;DHT22;7597;53.590;10.020;2023-02-18T00:42:25;6.40;27.00
15003;DHT22;7597;53.590;10.020;2023-02-18T00:44:53;6.40;15.10
15003;DHT22;7597;53.590;10.020;2023-02-18T00:47:20;6.40;20.90
15003;DHT22;7597;53.590;10.020;2023-02-18T00:49:48;6.40;20.20
15003;DHT22;7597;53.590;10.020;2023-02-18T00:52:17;6.30;23.90
15003;DHT22;7597;53.590;10.020;2023-02-18T00:54:46;6.40;25.90
15003;DHT22;7597;53.590;10.020;2023-02-18T00:57:13;6.30;27.40
15003;DHT22;7597;53.590;10.020;2023-02-18T00:59:40;6.30;33.00
15003;DHT22;7597;53.590;10.020;2023-02-18T01:02:07;6.30;35.10
15003;DHT22;7597;53.590;10.020;2023-02-18T01:04:34;6.30;39.00
15003;DHT22;7597;53.590;10.020;2023-02-18T01:07:01;6.30;38.60
15003;DHT22;7597;53.590;10.020;2023-02-18T01:09:28;6.30;38.40
15003;DHT22;7597;53.590;10.020;2023-02-18T01:11:55;6.30;41.70
15003;DHT22;7597;53.590;10.020;2023-02-18T01:14:22;6.40;40.80
15003;DHT22;7597;53.590;10.020;2023-02-18T01:16:52;6.40;39.40
15003;DHT22;7597;53.590;10.020;2023-02-18T01:19:42;6.30;40.30
15003;DHT22;7597;53.590;10.020;2023-02-18T01:22:12;6.30;42.40
15003;DHT22;7597;53.590;10.020;2023-02-18T01:24:44;6.30;50.90
15003;DHT22;7597;53.590;10.020;2023-02-18T01:30:13;6.20;50.70
15003;DHT22;7597;53.590;10.020;2023-02-18T02:33:31;6.20;88.60
15003;DHT22;7597;53.590;10.020;2023-02-18T02:36:04;6.20;81.70
15003;DHT22;7597;53.590;10.020;2023-02-18T02:38:36;6.20;76.10
15003;DHT22;7597;53.590;10.020;2023-02-18T02:41:14;6.20;72.70
15003;DHT22;7597;53.590;10.020;2023-02-18T02:43:49;5.80;68.20
15003;DHT22;7597;53.590;10.020;2023-02-18T02:46:27;6.20;71.40
15003;DHT22;7597;53.590;10.020;2023-02-18T02:49:00;6.10;67.90
15003;DHT22;7597;53.590;10.020;2023-02-18T02:51:29;6.20;64.50
15003;DHT22;7597;53.590;10.020;2023-02-18T02:54:08;6.10;71.90
15003;DHT22;7597;53.590;10.020;2023-02-18T02:56:29;6.00;67.60
15003;DHT22;7597;53.590;10.020;2023-02-18T02:59:02;6.10;66.70
15003;DHT22;7597;53.590;10.020;2023-02-18T03:01:35;6.10;63.00
15003;DHT22;7597;53.590;10.020;2023-02-18T03:06:56;6.20;58.40
15003;DHT22;7597;53.590;10.020;2023-02-18T03:09:31;6.20;52.30
15003;DHT22;7597;53.590;10.020;2023-02-18T03:12:06;6.30;39.80
15003;DHT22;7597;53.590;10.020;2023-02-18T03:14:42;6.30;29.90
15003;DHT22;7597;53.590;10.020;2023-02-18T03:19:48;6.40;19.20
15003;DHT22;7597;53.590;10.020;2023-02-18T03:22:21;6.40;15.30
15003;DHT22;7597;53.590;10.020;2023-02-18T03:24:47;6.50;8.80
15003;DHT22;7597;53.590;10.020;2023-02-18T03:27:17;6.50;4.40
15003;DHT22;7597;53.590;10.020;2023-02-18T03:29:46;6.50;7.20
15003;DHT22;7597;53.590;10.020;2023-02-18T03:34:50;6.40;9.90
15003;DHT22;7597;53.590;10.020;2023-02-18T03:37:18;6.40;12.20
15003;DHT22;7597;53.590;10.020;2023-02-18T03:39:48;6.40;13.70
15003;DHT22;7597;53.590;10.020;2023-02-18T03:42:17;6.40;16.60
15003;DHT22;7597;53.590;10.020;2023-02-18T03:44:54;6.40;19.80
15003;DHT22;7597;53.590;10.020;2023-02-18T03:47:23;6.30;26.30
15003;DHT22;7597;53.590;10.020;2023-02-18T03:50:03;6.40;32.20
15003;DHT22;7597;53.590;10.020;2023-02-18T03:52:31;6.40;26.90
15003;DHT22;7597;53.590;10.020;2023-02-18T03:55:12;6.40;26.40
15003;DHT22;7597;53.590;10.020;2023-02-18T03:57:40;6.40;20.60
15003;DHT22;7597;53.590;10.020;2023-02-18T04:00:10;6.40;21.30
15003;DHT22;7597;53.590;10.020;2023-02-18T04:02:45;6.40;13.00
15003;DHT22;7597;53.590;10.020;2023-02-18T04:05:13;6.40;8.60
15003;DHT22;7597;53.590;10.020;2023-02-18T04:07:40;6.40;1.00
15003;DHT22;7597;53.590;10.020;2023-02-18T04:10:07;6.40;1.00
15003;DHT22;7597;53.590;10.020;2023-02-18T04:12:33;6.50;1.00
15003;DHT22;7597;53.590;10.020;2023-02-18T04:15:01;6.50;1.00
15003;DHT22;7597;53.590;10.020;2023-02-18T04:17:28;6.50;1.00
15003;DHT22;7597;53.590;10.020;2023-02-18T04:19:54;6.50;1.00
15003;DHT22;7597;53.590;10.020;2023-02-18T04:22:22;6.50;10.10
15003;DHT22;7597;53.590;10.020;2023-02-18T04:24:51;6.80;11.70
15003;DHT22;7597;53.590;10.020;2023-02-18T04:27:18;6.50;18.60
15003;DHT22;7597;53.590;10.020;2023-02-18T04:29:45;6.40;35.70
15003;DHT22;7597;53.590;10.020;2023-02-18T04:32:12;6.40;43.10
15003;DHT22;7597;53.590;10.020;2023-02-18T04:34:39;6.40;55.60
15003;DHT22;7597;53.590;10.020;2023-02-18T04:37:06;6.30;67.60
15003;DHT22;7597;53.590;10.020;2023-02-18T04:39:35;6.30;76.90
15003;DHT22;7597;53.590;10.020;2023-02-18T04:42:05;6.30;78.60
15003;DHT22;7597;53.590;10.020;2023-02-18T04:44:32;6.40;86.50
15003;DHT22;7597;53.590;10.020;2023-02-18T04:47:06;6.30;89.90
15003;DHT22;7597;53.590;10.020;2023-02-18T04:52:25;6.20;91.60
15003;DHT22;7597;53.590;10.020;2023-02-18T04:54:53;6.20;94.20
15003;DHT22;7597;53.590;10.020;2023-02-18T04:57:21;6.10;97.40
15003;DHT22;7597;53.590;10.020;2023-02-18T04:59:48;6.10;99.20
15003;DHT22;7597;53.590;10.020;2023-02-18T05:02:15;6.10;99.90
15003;DHT22;7597;53.590;10.020;2023-02-18T05:07:25;6.10;99.90
15003;DHT22;7597;53.590;10.020;2023-02-18T05:09:52;6.10;99.90
15003;DHT22;7597;53.590;10.020;2023-02-18T05:12:19;6.10;99.90
15003;DHT22;7597;53.590;10.020;2023-02-18T05:14:47;6.10;99.90
15003;DHT22;7597;53.590;10.020;2023-02-18T05:17:13;6.10;99.90
15003;DHT22;7597;53.590;10.020;2023-02-18T05:19:43;6.10;99.90
15003;DHT22;7597;53.590;10.020;2023-02-18T05:22:10;6.10;99.90
15003;DHT22;7597;53.590;10.020;2023-02-18T05:24:39;5.60;99.90
15003;DHT22;7597;53.590;10.020;2023-02-18T05:27:05;6.00;99.90
15003;DHT22;7597;53.590;10.020;2023-02-18T05:29:32;6.00;99.90
15003;DHT22;7597;53.590;10.020;2023-02-18T05:31:59;6.00;99.90
15003;DHT22;7597;53.590;10.020;2023-02-18T05:34:26;6.00;99.90
15003;DHT22;7597;53.590;10.020;2023-02-18T05:36:53;6.00;99.90
15003;DHT22;7597;53.590;10.020;2023-02-18T05:39:19;6.00;99.90
15003;DHT22;7597;53.590;10.020;2023-02-18T05:41:46;5.90;99.90
15003;DHT22;7597;53.590;10.020;2023-02-18T05:44:17;5.90;99.90
15003;DHT22;7597;53.590;10.020;2023-02-18T05:46:49;5.90;99.90
15003;DHT22;7597;53.590;10.020;2023-02-18T05:49:16;5.80;99.90
15003;DHT22;7597;53.590;10.020;2023-02-18T05:51:45;5.80;99.90
15003;DHT22;7597;53.590;10.020;2023-02-18T05:54:19;5.80;99.90
15003;DHT22;7597;53.590;10.020;2023-02-18T05:56:59;5.80;99.90
15003;DHT22;7597;53.590;10.020;2023-02-18T05:59:28;5.80;99.90
15003;DHT22;7597;53.590;10.020;2023-02-18T06:02:01;6.10;99.90
15003;DHT22;7597;53.590;10.020;2023-02-18T06:04:35;5.70;99.90
15003;DHT22;7597;53.590;10.020;2023-02-18T06:07:10;5.70;99.90
15003;DHT22;7597;53.590;10.020;2023-02-18T06:10:02;5.70;99.90
15003;DHT22;7597;53.590;10.020;2023-02-18T06:12:31;5.60;99.90
15003;DHT22;7597;53.590;10.020;2023-02-18T06:14:57;5.60;99.90
15003;DHT22;7597;53.590;10.020;2023-02-18T06:17:29;5.70;99.90
15003;DHT22;7597;53.590;10.020;2023-02-18T06:22:43;5.60;99.90
15003;DHT22;7597;53.590;10.020;2023-02-18T06:28:19;5.50;99.90
15003;DHT22;7597;53.590;10.020;2023-02-18T06:31:26;5.50;99.90
15003;DHT22;7597;53.590;10.020;2023-02-18T06:33:44;5.40;99.90
15003;DHT22;7597;53.590;10.020;2023-02-18T06:36:12;5.40;99.90
15003;DHT22;7597;53.590;10.020;2023-02-18T06:38:41;5.40;99.90
15003;DHT22;7597;53.590;10.020;2023-02-18T06:41:22;5.40;99.90
15003;DHT22;7597;53.590;10.020;2023-02-18T06:43:51;5.40;99.90
15003;DHT22;7597;53.590;10.020;2023-02-18T06:46:22;5.40;99.90
15003;DHT22;7597;53.590;10.020;2023-02-18T06:48:54;5.40;99.90
15003;DHT22;7597;53.590;10.020;2023-02-18T06:51:23;5.40;99.90
15003;DHT22;7597;53.590;10.020;2023-02-18T06:53:54;5.40;99.90
15003;DHT22;7597;53.590;10.020;2023-02-18T06:56:25;5.40;99.90
15003;DHT22;7597;53.590;10.020;2023-02-18T06:58:55;5.40;99.90
15003;DHT22;7597;53.590;10.020;2023-02-18T07:01:25;5.50;99.90
15003;DHT22;7597;53.590;10.020;2023-02-18T07:03:52;5.50;99.90
15003;DHT22;7597;53.590;10.020;2023-02-18T07:06:20;5.50;99.90
15003;DHT22;7597;53.590;10.020;2023-02-18T07:08:47;5.50;99.90
15003;DHT22;7597;53.590;10.020;2023-02-18T07:11:14;5.50;99.90
15003;DHT22;7597;53.590;10.020;2023-02-18T07:13:42;5.50;99.90
15003;DHT22;7597;53.590;10.020;2023-02-18T07:16:10;5.50;99.90
15003;DHT22;7597;53.590;10.020;2023-02-18T07:18:46;5.50;99.90
15003;DHT22;7597;53.590;10.020;2023-02-18T07:21:16;5.50;99.90
15003;DHT22;7597;53.590;10.020;2023-02-18T07:23:46;5.50;1.00
15003;DHT22;7597;53.590;10.020;2023-02-18T07:26:22;5.60;1.00
15003;DHT22;7597;53.590;10.020;2023-02-18T07:29:06;5.50;1.00
15003;DHT22;7597;53.590;10.020;2023-02-18T07:31:34;5.50;1.00
15003;DHT22;7597;53.590;10.020;2023-02-18T07:34:07;5.50;1.00
15003;DHT22;7597;53.590;10.020;2023-02-18T07:36:35;5.60;1.00
15003;DHT22;7597;53.590;10.020;2023-02-18T07:39:06;5.60;1.00
15003;DHT22;7597;53.590;10.020;2023-02-18T07:41:34;5.60;1.00
15003;DHT22;7597;53.590;10.020;2023-02-18T07:44:02;5.60;1.00
15003;DHT22;7597;53.590;10.020;2023-02-18T07:46:34;5.60;1.00
15003;DHT22;7597;53.590;10.020;2023-02-18T07:49:08;5.60;1.00
15003;DHT22;7597;53.590;10.020;2023-02-18T07:51:39;5.60;1.00
15003;DHT22;7597;53.590;10.020;2023-02-18T07:54:09;5.70;1.00
15003;DHT22;7597;53.590;10.020;2023-02-18T07:56:39;5.70;1.00
15003;DHT22;7597;53.590;10.020;2023-02-18T07:59:06;5.70;1.00
15003;DHT22;7597;53.590;10.020;2023-02-18T08:01:34;5.30;1.00
15003;DHT22;7597;53.590;10.020;2023-02-18T08:04:04;5.80;1.00
15003;DHT22;7597;53.590;10.020;2023-02-18T08:06:34;5.80;1.00
15003;DHT22;7597;53.590;10.020;2023-02-18T08:09:02;5.80;1.00
15003;DHT22;7597;53.590;10.020;2023-02-18T08:11:31;5.90;1.00
15003;DHT22;7597;53.590;10.020;2023-02-18T08:14:00;6.10;1.00
15003;DHT22;7597;53.590;10.020;2023-02-18T08:16:28;5.90;1.00
15003;DHT22;7597;53.590;10.020;2023-02-18T08:18:57;6.30;1.00
15003;DHT22;7597;53.590;10.020;2023-02-18T08:21:26;5.90;1.00
15003;DHT22;7597;53.590;10.020;2023-02-18T08:23:52;5.90;1.00
15003;DHT22;7597;53.590;10.020;2023-02-18T08:26:20;5.90;1.00
15003;DHT22;7597;53.590;10.020;2023-02-18T08:28:48;5.90;1.00
15003;DHT22;7597;53.590;10.020;2023-02-18T08:31:17;5.90;1.00
15003;DHT22;7597;53.590;10.020;2023-02-18T08:33:44;5.90;1.00
15003;DHT22;7597;53.590;10.020;2023-02-18T08:36:10;5.90;1.00
15003;DHT22;7597;53.590;10.020;2023-02-18T08:38:38;5.90;1.00
15003;DHT22;7597;53.590;10.020;2023-02-18T08:41:05;5.90;1.00
15003;DHT22;7597;53.590;10.020;2023-02-18T08:43:31;5.90;1.00
15003;DHT22;7597;53.590;10.020;2023-02-18T08:45:58;5.90;1.00
15003;DHT22;7597;53.590;10.020;2023-02-18T08:48:25;5.90;1.00
15003;DHT22;7597;53.590;10.020;2023-02-18T08:50:51;5.90;1.00
15003;DHT22;7597;53.590;10.020;2023-02-18T08:53:18;6.00;1.00
15003;DHT22;7597;53.590;10.020;2023-02-18T08:55:45;6.00;1.00
15003;DHT22;7597;53.590;10.020;2023-02-18T08:58:12;6.10;1.00
15003;DHT22;7597;53.590;10.020;2023-02-18T09:00:39;6.10;1.00
15003;DHT22;7597;53.590;10.020;2023-02-18T09:03:05;6.10;1.00
15003;DHT22;7597;53.590;10.020;2023-02-18T09:05:32;6.10;1.00
15003;DHT22;7597;53.590;10.020;2023-02-18T09:07:59;6.10;1.00
15003;DHT22;7597;53.590;10.020;2023-02-18T09:13:07;6.10;1.00
15003;DHT22;7597;53.590;10.020;2023-02-18T09:15:34;6.10;1.00
15003;DHT22;7597;53.590;10.020;2023-02-18T09:18:00;6.10;1.00
15003;DHT22;7597;53.590;10.020;2023-02-18T09:20:27;6.10;1.00
15003;DHT22;7597;53.590;10.020;2023-02-18T09:22:54;6.10;1.00
15003;DHT22;7597;53.590;10.020;2023-02-18T09:25:21;6.10;1.00
15003;DHT22;7597;53.590;10.020;2023-02-18T09:27:48;6.10;1.00
15003;DHT22;7597;53.590;10.020;2023-02-18T09:30:15;6.20;1.00
15003;DHT22;7597;53.590;10.020;2023-02-18T09:32:41;6.10;1.00
15003;DHT22;7597;53.590;10.020;2023-02-18T09:35:12;6.10;1.00
15003;DHT22;7597;53.590;10.020;2023-02-18T09:37:41;6.00;1.00
15003;DHT22;7597;53.590;10.020;2023-02-18T09:40:11;6.30;1.00
15003;DHT22;7597;53.590;10.020;2023-02-18T09:42:39;6.30;1.00
15003;DHT22;7597;53.590;10.020;2023-02-18T09:45:09;6.30;1.00
15003;DHT22;7597;53.590;10.020;2023-02-18T09:47:37;6.20;1.00
15003;DHT22;7597;53.590;10.020;2023-02-18T09:50:10;6.20;1.00
15003;DHT22;7597;53.590;10.020;2023-02-18T09:52:35;6.20;1.00
15003;DHT22;7597;53.590;10.020;2023-02-18T09:55:13;6.20;1.00
15003;DHT22;7597;53.590;10.020;2023-02-18T09:57:46;6.20;1.00
15003;DHT22;7597;53.590;10.020;2023-02-18T10:00:24;6.10;1.00
15003;DHT22;7597;53.590;10.020;2023-02-18T10:02:55;6.60;1.00
15003;DHT22;7597;53.590;10.020;2023-02-18T10:05:22;6.20;1.00
15003;DHT22;7597;53.590;10.020;2023-02-18T10:07:49;6.20;1.00
15003;DHT22;7597;53.590;10.020;2023-02-18T10:10:50;6.30;1.00
15003;DHT22;7597;53.590;10.020;2023-02-18T10:12:59;6.30;1.00
15003;DHT22;7597;53.590;10.020;2023-02-18T10:15:27;6.30;1.00
15003;DHT22;7597;53.590;10.020;2023-02-18T10:17:53;6.30;1.00
15003;DHT22;7597;53.590;10.020;2023-02-18T10:20:21;6.40;1.00
15003;DHT22;7597;53.590;10.020;2023-02-18T10:22:46;6.40;1.00
15003;DHT22;7597;53.590;10.020;2023-02-18T10:25:16;6.50;1.00
15003;DHT22;7597;53.590;10.020;2023-02-18T10:27:40;6.50;1.00
15003;DHT22;7597;53.590;10.020;2023-02-18T10:30:26;6.50;1.00
15003;DHT22;7597;53.590;10.020;2023-02-18T10:32:52;6.50;1.00
15003;DHT22;7597;53.590;10.020;2023-02-18T10:35:21;6.60;1.00
15003;DHT22;7597;53.590;10.020;2023-02-18T10:38:05;6.60;1.00
15003;DHT22;7597;53.590;10.020;2023-02-18T10:40:45;6.60;1.00
15003;DHT22;7597;53.590;10.020;2023-02-18T10:43:37;6.70;1.00
15003;DHT22;7597;53.590;10.020;2023-02-18T10:46:12;6.80;1.00
15003;DHT22;7597;53.590;10.020;2023-02-18T10:51:18;6.80;1.00
15003;DHT22;7597;53.590;10.020;2023-02-18T10:53:43;6.80;1.00
15003;DHT22;7597;53.590;10.020;2023-02-18T10:58:45;6.90;1.00
15003;DHT22;7597;53.590;10.020;2023-02-18T11:01:13;6.90;1.00
15003;DHT22;7597;53.590;10.020;2023-02-18T11:03:41;7.00;1.00
15003;DHT22;7597;53.590;10.020;2023-02-18T11:06:14;7.10;1.00
15003;DHT22;7597;53.590;10.020;2023-02-18T11:08:37;7.20;1.00
15003;DHT22;7597;53.590;10.020;2023-02-18T11:11:05;7.20;1.00
15003;DHT22;7597;53.590;10.020;2023-02-18T11:13:28;7.30;1.00
15003;DHT22;7597;53.590;10.020;2023-02-18T11:15:56;7.30;1.00
15003;DHT22;7597;53.590;10.020;2023-02-18T11:18:39;7.30;1.00
15003;DHT22;7597;53.590;10.020;2023-02-18T11:23:47;7.30;1.00
15003;DHT22;7597;53.590;10.020;2023-02-18T11:26:13;7.30;1.00
15003;DHT22;7597;53.590;10.020;2023-02-18T11:28:46;7.30;1.00
15003;DHT22;7597;53.590;10.020;2023-02-18T11:31:19;7.30;1.00
15003;DHT22;7597;53.590;10.020;2023-02-18T11:33:49;7.30;1.00
15003;DHT22;7597;53.590;10.020;2023-02-18T11:36:22;7.30;1.00
15003;DHT22;7597;53.590;10.020;2023-02-18T11:38:52;7.40;1.00
15003;DHT22;7597;53.590;10.020;2023-02-18T11:41:21;7.50;1.00
15003;DHT22;7597;53.590;10.020;2023-02-18T11:43:48;7.50;1.00
15003;DHT22;7597;53.590;10.020;2023-02-18T11:46:16;7.50;1.00
15003;DHT22;7597;53.590;10.020;2023-02-18T11:48:45;7.60;1.00
15003;DHT22;7597;53.590;10.020;2023-02-18T11:51:18;7.70;1.00
15003;DHT22;7597;53.590;10.020;2023-02-18T11:53:57;7.90;1.00
15003;DHT22;7597;53.590;10.020;2023-02-18T11:56:26;8.10;19.40
15003;DHT22;7597;53.590;10.020;2023-02-18T11:58:52;8.50;99.90
15003;DHT22;7597;53.590;10.020;2023-02-18T12:01:54;8.70;99.90
15003;DHT22;7597;53.590;10.020;2023-02-18T12:04:08;9.00;99.90
15003;DHT22;7597;53.590;10.020;2023-02-18T12:09:08;9.20;99.90
15003;DHT22;7597;53.590;10.020;2023-02-18T12:12:06;9.30;99.90
15003;DHT22;7597;53.590;10.020;2023-02-18T12:14:17;9.30;99.90
15003;DHT22;7597;53.590;10.020;2023-02-18T12:19:52;9.40;99.90
15003;DHT22;7597;53.590;10.020;2023-02-18T12:22:26;9.40;99.90
15003;DHT22;7597;53.590;10.020;2023-02-18T12:24:59;9.40;99.90
15003;DHT22;7597;53.590;10.020;2023-02-18T12:27:29;9.40;99.90
15003;DHT22;7597;53.590;10.020;2023-02-18T12:32:45;9.30;99.90
15003;DHT22;7597;53.590;10.020;2023-02-18T12:37:51;9.30;99.90
15003;DHT22;7597;53.590;10.020;2023-02-18T12:40:39;9.30;99.90
15003;DHT22;7597;53.590;10.020;2023-02-18T12:46:12;9.20;99.90
15003;DHT22;7597;53.590;10.020;2023-02-18T12:48:45;9.20;99.90
15003;DHT22;7597;53.590;10.020;2023-02-18T12:51:28;9.20;99.90
15003;DHT22;7597;53.590;10.020;2023-02-18T12:54:18;9.20;99.90
15003;DHT22;7597;53.590;10.020;2023-02-18T12:56:55;9.20;99.90
15003;DHT22;7597;53.590;10.020;2023-02-18T12:59:34;9.20;99.90
15003;DHT22;7597;53.590;10.020;2023-02-18T13:04:44;9.10;99.90
15003;DHT22;7597;53.590;10.020;2023-02-18T13:07:29;9.10;99.90
15003;DHT22;7597;53.590;10.020;2023-02-18T13:10:19;9.10;99.90
15003;DHT22;7597;53.590;10.020;2023-02-18T13:13:01;9.10;99.90
15003;DHT22;7597;53.590;10.020;2023-02-18T13:15:32;9.10;99.90
15003;DHT22;7597;53.590;10.020;2023-02-18T13:17:56;9.00;99.90
15003;DHT22;7597;53.590;10.020;2023-02-18T13:20:24;9.10;99.90
15003;DHT22;7597;53.590;10.020;2023-02-18T13:22:49;9.00;99.90
15003;DHT22;7597;53.590;10.020;2023-02-18T13:25:16;9.00;99.90
15003;DHT22;7597;53.590;10.020;2023-02-18T13:30:36;9.00;99.90
15003;DHT22;7597;53.590;10.020;2023-02-18T13:33:20;9.00;99.90
15003;DHT22;7597;53.590;10.020;2023-02-18T13:35:52;9.00;99.90
15003;DHT22;7597;53.590;10.020;2023-02-18T13:38:27;9.00;99.90
15003;DHT22;7597;53.590;10.020;2023-02-18T13:40:55;8.90;99.90
15003;DHT22;7597;53.590;10.020;2023-02-18T13:43:32;8.90;99.90
15003;DHT22;7597;53.590;10.020;2023-02-18T13:46:18;8.90;99.90
15003;DHT22;7597;53.590;10.020;2023-02-18T13:49:03;9.00;99.90
15003;DHT22;7597;53.590;10.020;2023-02-18T13:51:31;8.90;99.90
15003;DHT22;7597;53.590;10.020;2023-02-18T13:54:01;8.90;99.90
15003;DHT22;7597;53.590;10.020;2023-02-18T13:56:27;8.80;99.90
15003;DHT22;7597;53.590;10.020;2023-02-18T13:58:58;8.80;99.90
15003;DHT22;7597;53.590;10.020;2023-02-18T14:01:36;8.80;99.90
15003;DHT22;7597;53.590;10.020;2023-02-18T14:03:54;8.70;99.90
15003;DHT22;7597;53.590;10.020;2023-02-18T14:06:25;8.70;99.90
15003;DHT22;7597;53.590;10.020;2023-02-18T14:08:51;8.80;99.90
15003;DHT22;7597;53.590;10.020;2023-02-18T14:11:23;8.70;99.90
15003;DHT22;7597;53.590;10.020;2023-02-18T14:14:14;8.60;92.60
15003;DHT22;7597;53.590;10.020;2023-02-18T14:19:28;8.60;91.50
15003;DHT22;7597;53.590;10.020;2023-02-18T14:22:21;8.20;1.00
15003;DHT22;7597;53.590;10.020;2023-02-18T14:24:42;8.00;1.00
15003;DHT22;7597;53.590;10.020;2023-02-18T14:26:48;7.80;1.00
15003;DHT22;7597;53.590;10.020;2023-02-18T14:29:26;7.70;1.00
15003;DHT22;7597;53.590;10.020;2023-02-18T14:32:01;7.60;1.00
15003;DHT22;7597;53.590;10.020;2023-02-18T14:37:22;7.40;1.00
15003;DHT22;7597;53.590;10.020;2023-02-18T14:40:09;7.30;1.00
15003;DHT22;7597;53.590;10.020;2023-02-18T14:42:54;7.30;1.00
15003;DHT22;7597;53.590;10.020;2023-02-18T14:50:38;7.20;1.00
15003;DHT22;7597;53.590;10.020;2023-02-18T14:53:06;7.10;1.00
15003;DHT22;7597;53.590;10.020;2023-02-18T14:55:33;7.30;1.00
15003;DHT22;7597;53.590;10.020;2023-02-18T14:58:01;7.10;1.00
15003;DHT22;7597;53.590;10.020;2023-02-18T15:00:28;7.00;1.00
15003;DHT22;7597;53.590;10.020;2023-02-18T15:02:54;7.00;1.00
15003;DHT22;7597;53.590;10.020;2023-02-18T15:05:22;7.00;1.00
15003;DHT22;7597;53.590;10.020;2023-02-18T15:08:00;7.00;1.00
15003;DHT22;7597;53.590;10.020;2023-02-18T15:10:44;7.00;1.00
15003;DHT22;7597;53.590;10.020;2023-02-18T15:13:17;7.00;1.00
15003;DHT22;7597;53.590;10.020;2023-02-18T15:15:43;7.20;1.00
15003;DHT22;7597;53.590;10.020;2023-02-18T15:18:15;7.60;1.00
15003;DHT22;7597;53.590;10.020;2023-02-18T15:20:40;7.70;1.00
15003;DHT22;7597;53.590;10.020;2023-02-18T15:23:09;7.70;1.00
15003;DHT22;7597;53.590;10.020;2023-02-18T15:25:41;7.60;1.00
15003;DHT22;7597;53.590;10.020;2023-02-18T15:28:19;7.50;1.00
15003;DHT22;7597;53.590;10.020;2023-02-18T15:30:36;7.20;1.00
15003;DHT22;7597;53.590;10.020;2023-02-18T15:33:08;7.00;1.00
15003;DHT22;7597;53.590;10.020;2023-02-18T15:35:32;6.90;1.00
15003;DHT22;7597;53.590;10.020;2023-02-18T15:37:59;6.70;1.00
15003;DHT22;7597;53.590;10.020;2023-02-18T15:40:29;6.70;1.00
15003;DHT22;7597;53.590;10.020;2023-02-18T15:42:58;6.60;1.00
15003;DHT22;7597;53.590;10.020;2023-02-18T15:45:29;6.60;1.00
15003;DHT22;7597;53.590;10.020;2023-02-18T15:47:55;6.40;1.00
15003;DHT22;7597;53.590;10.020;2023-02-18T15:50:23;6.20;1.00
15003;DHT22;7597;53.590;10.020;2023-02-18T15:52:51;6.10;1.00
15003;DHT22;7597;53.590;10.020;2023-02-18T15:55:24;6.00;1.00
15003;DHT22;7597;53.590;10.020;2023-02-18T15:57:48;6.00;1.00
15003;DHT22;7597;53.590;10.020;2023-02-18T16:00:18;5.90;1.00
15003;DHT22;7597;53.590;10.020;2023-02-18T16:02:53;5.80;1.00
15003;DHT22;7597;53.590;10.020;2023-02-18T16:05:24;5.80;1.00
15003;DHT22;7597;53.590;10.020;2023-02-18T16:07:57;6.20;1.00
15003;DHT22;7597;53.590;10.020;2023-02-18T16:10:24;5.70;1.00
15003;DHT22;7597;53.590;10.020;2023-02-18T16:12:52;5.70;1.00
15003;DHT22;7597;53.590;10.020;2023-02-18T16:15:22;5.40;1.00
15003;DHT22;7597;53.590;10.020;2023-02-18T16:17:47;5.60;1.00
15003;DHT22;7597;53.590;10.020;2023-02-18T16:20:23;5.50;1.00
15003;DHT22;7597;53.590;10.020;2023-02-18T16:22:45;5.50;1.00
15003;DHT22;7597;53.590;10.020;2023-02-18T16:25:16;5.50;1.00
15003;DHT22;7597;53.590;10.020;2023-02-18T16:28:04;5.50;1.00
15003;DHT22;7597;53.590;10.020;2023-02-18T16:30:30;5.40;1.00
15003;DHT22;7597;53.590;10.020;2023-02-18T16:32:56;5.50;1.00
15003;DHT22;7597;53.590;10.020;2023-02-18T16:35:23;5.50;1.00
15003;DHT22;7597;53.590;10.020;2023-02-18T16:37:50;5.50;1.00
15003;DHT22;7597;53.590;10.020;2023-02-18T16:40:21;5.40;1.00
15003;DHT22;7597;53.590;10.020;2023-02-18T16:42:47;5.40;1.00
15003;DHT22;7597;53.590;10.020;2023-02-18T16:45:14;5.40;1.00
15003;DHT22;7597;53.590;10.020;2023-02-18T16:47:41;5.40;1.00
15003;DHT22;7597;53.590;10.020;2023-02-18T16:50:17;5.30;1.00
15003;DHT22;7597;53.590;10.020;2023-02-18T16:52:42;5.30;1.00
15003;DHT22;7597;53.590;10.020;2023-02-18T16:55:18;5.20;1.00
15003;DHT22;7597;53.590;10.020;2023-02-18T16:57:44;5.10;1.00
15003;DHT22;7597;53.590;10.020;2023-02-18T17:00:11;5.00;1.00
15003;DHT22;7597;53.590;10.020;2023-02-18T17:02:43;5.40;1.00
15003;DHT22;7597;53.590;10.020;2023-02-18T17:05:11;4.90;1.00
15003;DHT22;7597;53.590;10.020;2023-02-18T17:07:36;4.80;1.00
15003;DHT22;7597;53.590;10.020;2023-02-18T17:10:04;4.80;1.00
15003;DHT22;7597;53.590;10.020;2023-02-18T17:12:32;4.90;1.00
15003;DHT22;7597;53.590;10.020;2023-02-18T17:14:58;4.90;1.00
15003;DHT22;7597;53.590;10.020;2023-02-18T17:17:25;4.80;1.00
15003;DHT22;7597;53.590;10.020;2023-02-18T17:19:52;4.80;1.00
15003;DHT22;7597;53.590;10.020;2023-02-18T17:22:20;4.80;1.00
15003;DHT22;7597;53.590;10.020;2023-02-18T17:24:48;4.70;1.00
15003;DHT22;7597;53.590;10.020;2023-02-18T17:27:15;4.60;1.00
15003;DHT22;7597;53.590;10.020;2023-02-18T17:29:42;4.50;1.00
15003;DHT22;7597;53.590;10.020;2023-02-18T17:32:10;4.50;1.00
15003;DHT22;7597;53.590;10.020;2023-02-18T17:34:36;4.50;1.00
15003;DHT22;7597;53.590;10.020;2023-02-18T17:37:03;4.60;1.00
15003;DHT22;7597;53.590;10.020;2023-02-18T17:39:29;4.60;1.00
15003;DHT22;7597;53.590;10.020;2023-02-18T17:42:09;4.60;1.00
15003;DHT22;7597;53.590;10.020;2023-02-18T17:44:36;4.70;1.00
15003;DHT22;7597;53.590;10.020;2023-02-18T17:47:03;4.70;1.00
15003;DHT22;7597;53.590;10.020;2023-02-18T17:49:30;4.80;1.00
15003;DHT22;7597;53.590;10.020;2023-02-18T17:51:57;4.80;1.00
15003;DHT22;7597;53.590;10.020;2023-02-18T17:54:24;4.90;1.00
15003;DHT22;7597;53.590;10.020;2023-02-18T17:56:51;4.90;1.00
15003;DHT22;7597;53.590;10.020;2023-02-18T17:59:17;4.80;1.00
15003;DHT22;7597;53.590;10.020;2023-02-18T18:01:45;4.90;1.00
15003;DHT22;7597;53.590;10.020;2023-02-18T18:04:12;4.80;1.00
15003;DHT22;7597;53.590;10.020;2023-02-18T18:06:38;4.80;1.00
15003;DHT22;7597;53.590;10.020;2023-02-18T18:09:06;4.70;1.00
15003;DHT22;7597;53.590;10.020;2023-02-18T18:11:32;4.70;1.00
15003;DHT22;7597;53.590;10.020;2023-02-18T18:13:59;4.60;1.00
15003;DHT22;7597;53.590;10.020;2023-02-18T18:16:26;4.60;1.00
15003;DHT22;7597;53.590;10.020;2023-02-18T18:18:53;4.50;1.00